Time;durP1;ratioP1;P1;durP2;ratioP2;P2;SDS_P1;SDS_P2;PMS_P1;PMS_P2;Temp;Humidity;BMP_temperature;BMP_pressure;BME280_temperature;BME280_humidity;BME280_pressure;Samples;Min_cycle;Max_cycle;Signal;HPM_P1;HPM_P2
2022/12/07 00:01:55;;;;;;;2.33;1.00;;;;;;;;;;5126850;27;20042;-73
2022/12/07 00:04:25;;;;;;;5.20;1.38;;;;;;;;;;5129441;27;20051;-74
2022/12/07 00:06:55;;;;;;;4.03;1.33;;;;;;;;;;5127102;27;20109;-74
2022/12/07 00:09:25;;;;;;;7.50;1.10;;;;;;;;;;5129232;27;20521;-73
2022/12/07 00:11:55;;;;;;;0.82;0.70;;;;;;;;;;5129304;27;20039;-74
2022/12/07 00:14:25;;;;;;;3.47;1.02;;;;;;;;;;5129303;27;20051;-74
2022/12/07 00:16:54;;;;;;;4.05;0.80;;;;;;;;;;5128886;27;20108;-73
2022/12/07 00:19:26;;;;;;;6.10;1.70;;;;;;;;;;5129548;27;20409;-73
2022/12/07 00:21:55;;;;;;;4.03;1.13;;;;;;;;;;5127520;27;20050;-73
2022/12/07 00:24:26;;;;;;;2.80;0.80;;;;;;;;;;5128859;27;20513;-73
2022/12/07 00:26:55;;;;;;;3.33;1.15;;;;;;;;;;5128867;27;20043;-74
2022/12/07 00:29:26;;;;;;;2.85;1.15;;;;;;;;;;5129382;27;20055;-74
2022/12/07 00:31:56;;;;;;;4.20;0.80;;;;;;;;;;5128910;27;20051;-73
2022/12/07 00:34:26;;;;;;;2.15;0.85;;;;;;;;;;5129033;27;20065;-74
2022/12/07 00:36:55;;;;;;;3.28;0.77;;;;;;;;;;5128210;27;20505;-75
2022/12/07 00:39:26;;;;;;;2.17;0.70;;;;;;;;;;5128095;27;20062;-72
2022/12/07 00:41:56;;;;;;;2.85;0.80;;;;;;;;;;5128289;27;20055;-73
2022/12/07 00:44:26;;;;;;;4.05;1.30;;;;;;;;;;5127409;27;20532;-73
2022/12/07 00:46:56;;;;;;;2.35;1.27;;;;;;;;;;5127249;27;20054;-73
2022/12/07 00:49:26;;;;;;;1.35;0.82;;;;;;;;;;5127067;27;20047;-73
2022/12/07 00:51:56;;;;;;;7.22;1.23;;;;;;;;;;5128918;27;20043;-73
2022/12/07 00:54:26;;;;;;;3.72;0.85;;;;;;;;;;5128457;27;20055;-76
2022/12/07 00:56:56;;;;;;;2.03;0.75;;;;;;;;;;5128364;27;20104;-73
2022/12/07 00:59:25;;;;;;;2.97;1.00;;;;;;;;;;5127648;27;20043;-73
2022/12/07 01:01:55;;;;;;;2.65;0.80;;;;;;;;;;5112674;27;20054;-73
2022/12/07 01:04:25;;;;;;;3.33;1.15;;;;;;;;;;5109060;28;20052;-73
2022/12/07 01:06:55;;;;;;;4.32;1.15;;;;;;;;;;5108835;28;20070;-71
2022/12/07 01:09:24;;;;;;;3.25;1.00;;;;;;;;;;5108421;28;20153;-73
2022/12/07 01:11:54;;;;;;;4.13;0.82;;;;;;;;;;5108410;28;20044;-72
2022/12/07 01:14:24;;;;;;;4.80;0.82;;;;;;;;;;5107311;28;20063;-73
2022/12/07 01:16:54;;;;;;;7.97;1.02;;;;;;;;;;5107827;28;20051;-73
2022/12/07 01:19:24;;;;;;;4.43;0.98;;;;;;;;;;5108208;28;20047;-72
2022/12/07 01:21:54;;;;;;;4.45;0.85;;;;;;;;;;5108255;28;20490;-73
2022/12/07 01:24:23;;;;;;;6.28;0.90;;;;;;;;;;5107868;28;20502;-73
2022/12/07 01:26:53;;;;;;;7.15;0.93;;;;;;;;;;5108004;28;20050;-73
2022/12/07 01:29:23;;;;;;;4.55;0.80;;;;;;;;;;5108065;28;20054;-73
2022/12/07 01:31:53;;;;;;;3.70;0.88;;;;;;;;;;5107387;28;20072;-72
2022/12/07 01:34:22;;;;;;;2.53;0.80;;;;;;;;;;5107947;28;20490;-72
2022/12/07 01:36:52;;;;;;;2.63;0.80;;;;;;;;;;5107991;28;20056;-75
2022/12/07 01:39:22;;;;;;;4.90;1.00;;;;;;;;;;5108221;28;20059;-73
2022/12/07 01:41:52;;;;;;;2.47;0.95;;;;;;;;;;5107701;28;20044;-74
2022/12/07 01:44:23;;;;;;;1.65;0.63;;;;;;;;;;5107396;28;20055;-71
2022/12/07 01:46:55;;;;;;;2.55;0.80;;;;;;;;;;5107203;28;20075;-72
2022/12/07 01:49:28;;;;;;;3.20;0.90;;;;;;;;;;5107420;28;20051;-72
2022/12/07 01:52:28;;;;;;;2.83;0.93;;;;;;;;;;5106942;28;20066;-72
2022/12/07 01:55:03;;;;;;;4.93;0.70;;;;;;;;;;5107341;28;20047;-71
2022/12/07 01:57:37;;;;;;;1.00;0.55;;;;;;;;;;5107359;28;20054;-73
2022/12/07 02:00:10;;;;;;;3.25;1.00;;;;;;;;;;5106192;28;20050;-72
2022/12/07 02:02:54;;;;;;;5.70;1.00;;;;;;;;;;5108119;28;20070;-73
2022/12/07 02:05:26;;;;;;;2.97;1.00;;;;;;;;;;5106283;28;20044;-71
2022/12/07 02:07:58;;;;;;;2.13;0.70;;;;;;;;;;5107499;28;20062;-73
2022/12/07 02:10:30;;;;;;;3.53;1.20;;;;;;;;;;5107871;28;20043;-73
2022/12/07 02:13:40;;;;;;;4.65;0.90;;;;;;;;;;5107351;28;20054;-73
2022/12/07 02:16:27;;;;;;;3.92;0.70;;;;;;;;;;5046256;28;20045;-71
2022/12/07 02:19:21;;;;;;;1.48;1.00;;;;;;;;;;5063750;28;20407;-73
2022/12/07 02:21:55;;;;;;;4.30;1.10;;;;;;;;;;5099906;28;20055;-72
2022/12/07 02:24:44;;;;;;;2.97;1.13;;;;;;;;;;5107294;28;20371;-72
2022/12/07 02:27:41;;;;;;;6.47;1.20;;;;;;;;;;5106935;28;20162;-72
2022/12/07 02:30:15;;;;;;;1.95;1.00;;;;;;;;;;5106964;28;20039;-76
2022/12/07 02:33:00;;;;;;;1.50;0.70;;;;;;;;;;5106704;28;20062;-73
2022/12/07 02:35:51;;;;;;;1.85;0.80;;;;;;;;;;5106775;28;20047;-72
2022/12/07 02:38:35;;;;;;;2.10;0.90;;;;;;;;;;5106438;28;20051;-72
2022/12/07 02:41:28;;;;;;;1.20;1.00;;;;;;;;;;5106403;28;20580;-72
2022/12/07 02:44:08;;;;;;;4.25;0.93;;;;;;;;;;5106646;28;20044;-72
2022/12/07 02:46:44;;;;;;;3.85;0.98;;;;;;;;;;5106744;28;20059;-72
2022/12/07 02:49:15;;;;;;;2.47;0.98;;;;;;;;;;5106692;28;20422;-72
2022/12/07 02:51:47;;;;;;;4.93;0.80;;;;;;;;;;5106703;28;20048;-73
2022/12/07 02:54:19;;;;;;;2.17;1.10;;;;;;;;;;5106734;28;20059;-72
2022/12/07 02:57:09;;;;;;;7.10;1.20;;;;;;;;;;5107070;28;20536;-73
2022/12/07 03:00:00;;;;;;;6.65;0.88;;;;;;;;;;5106511;28;20050;-73
2022/12/07 03:02:48;;;;;;;2.05;0.90;;;;;;;;;;5105672;28;20058;-72
2022/12/07 03:05:23;;;;;;;;;;;;;;;;;;5107060;28;20044;-72
2022/12/07 03:08:12;;;;;;;1.35;0.68;;;;;;;;;;5104751;28;20413;-72
2022/12/07 03:10:59;;;;;;;1.83;1.02;;;;;;;;;;5106460;28;20040;-72
2022/12/07 03:13:33;;;;;;;2.92;0.70;;;;;;;;;;5110305;28;20054;-72
2022/12/07 03:16:08;;;;;;;2.35;1.10;;;;;;;;;;5110698;28;20035;-72
2022/12/07 03:18:45;;;;;;;2.47;0.90;;;;;;;;;;5110859;28;20050;-72
2022/12/07 03:21:20;;;;;;;6.57;1.17;;;;;;;;;;5110875;28;20058;-71
2022/12/07 03:23:56;;;;;;;2.60;1.17;;;;;;;;;;5110189;28;20433;-71
2022/12/07 03:26:38;;;;;;;3.78;1.02;;;;;;;;;;5110509;28;20046;-72
2022/12/07 03:29:16;;;;;;;6.22;1.85;;;;;;;;;;5110082;28;20044;-73
2022/12/07 03:31:52;;;;;;;2.38;0.75;;;;;;;;;;5109853;28;20051;-72
2022/12/07 03:34:34;;;;;;;2.00;1.10;;;;;;;;;;5109783;28;20047;-71
2022/12/07 03:37:11;;;;;;;2.45;0.77;;;;;;;;;;5108612;28;20048;-72
2022/12/07 03:40:22;;;;;;;3.53;0.85;;;;;;;;;;5110163;28;20043;-73
2022/12/07 03:42:53;;;;;;;4.28;0.88;;;;;;;;;;5108849;28;20055;-73
2022/12/07 03:45:32;;;;;;;5.35;0.90;;;;;;;;;;5109903;28;20517;-72
2022/12/07 03:48:27;;;;;;;5.70;1.33;;;;;;;;;;5110062;28;21135;-72
2022/12/07 03:51:11;;;;;;;6.78;1.30;;;;;;;;;;5110029;28;20050;-72
2022/12/07 03:53:46;;;;;;;2.33;1.08;;;;;;;;;;5108952;28;20055;-72
2022/12/07 03:56:17;;;;;;;2.88;1.30;;;;;;;;;;5109774;28;20379;-73
2022/12/07 03:58:48;;;;;;;2.92;1.23;;;;;;;;;;5109096;28;20044;-72
2022/12/07 04:01:19;;;;;;;4.32;1.33;;;;;;;;;;5109935;28;20055;-73
2022/12/07 04:03:49;;;;;;;4.10;1.08;;;;;;;;;;5109325;28;20502;-73
2022/12/07 04:06:20;;;;;;;3.30;1.23;;;;;;;;;;5109655;28;20051;-73
2022/12/07 04:08:50;;;;;;;2.47;1.20;;;;;;;;;;5109607;28;20832;-73
2022/12/07 04:11:20;;;;;;;8.80;1.20;;;;;;;;;;5109811;28;20055;-73
2022/12/07 04:16:37;;;;;;;3.45;1.17;;;;;;;;;;5109486;28;20040;-73
2022/12/07 04:19:13;;;;;;;3.65;1.00;;;;;;;;;;5109550;28;20054;-72
2022/12/07 04:21:43;;;;;;;4.75;1.00;;;;;;;;;;5109839;28;20044;-73
2022/12/07 04:24:15;;;;;;;3.38;1.10;;;;;;;;;;5108826;28;20056;-73
2022/12/07 04:26:47;;;;;;;4.68;1.08;;;;;;;;;;5108883;28;20058;-73
2022/12/07 04:29:18;;;;;;;5.45;1.02;;;;;;;;;;5109314;28;20042;-73
2022/12/07 04:31:49;;;;;;;3.42;1.10;;;;;;;;;;5109424;28;20051;-72
2022/12/07 04:34:20;;;;;;;5.22;1.52;;;;;;;;;;5109422;28;20051;-73
2022/12/07 04:36:50;;;;;;;1.60;1.00;;;;;;;;;;5106608;28;20391;-73
2022/12/07 04:39:28;;;;;;;2.97;1.50;;;;;;;;;;5109283;28;20062;-72
2022/12/07 04:42:00;;;;;;;3.75;1.60;;;;;;;;;;5109053;28;20044;-73
2022/12/07 04:44:31;;;;;;;7.90;1.67;;;;;;;;;;5109064;28;20055;-73
2022/12/07 04:47:02;;;;;;;6.65;1.50;;;;;;;;;;5108999;28;20051;-73
2022/12/07 04:49:32;;;;;;;2.13;0.80;;;;;;;;;;5108657;28;20058;-73
2022/12/07 04:52:02;;;;;;;2.50;1.10;;;;;;;;;;5108665;28;20035;-72
2022/12/07 04:54:32;;;;;;;4.95;0.95;;;;;;;;;;5109373;28;20040;-73
2022/12/07 04:57:02;;;;;;;4.10;1.25;;;;;;;;;;5108275;28;20058;-73
2022/12/07 04:59:31;;;;;;;2.30;1.00;;;;;;;;;;5108883;28;20039;-72
2022/12/07 05:02:01;;;;;;;4.93;1.23;;;;;;;;;;5105990;28;20048;-73
2022/12/07 05:04:32;;;;;;;3.45;1.30;;;;;;;;;;5108533;28;20050;-73
2022/12/07 05:07:01;;;;;;;1.70;1.00;;;;;;;;;;5108262;28;20047;-73
2022/12/07 05:09:31;;;;;;;3.83;1.13;;;;;;;;;;5107818;28;20044;-73
2022/12/07 05:12:01;;;;;;;4.63;1.10;;;;;;;;;;5107645;28;20039;-73
2022/12/07 05:14:31;;;;;;;1.35;0.90;;;;;;;;;;5108199;28;20051;-73
2022/12/07 05:17:00;;;;;;;3.63;0.85;;;;;;;;;;5107585;28;20052;-73
2022/12/07 05:19:30;;;;;;;3.42;0.85;;;;;;;;;;5108095;28;20048;-73
2022/12/07 05:22:00;;;;;;;2.97;0.80;;;;;;;;;;5108571;28;20051;-72
2022/12/07 05:24:30;;;;;;;2.45;1.00;;;;;;;;;;5108190;28;20044;-73
2022/12/07 05:27:00;;;;;;;4.30;1.10;;;;;;;;;;5108123;28;20043;-73
2022/12/07 05:29:29;;;;;;;4.93;1.05;;;;;;;;;;5108238;28;20044;-73
2022/12/07 05:31:59;;;;;;;5.20;1.25;;;;;;;;;;5107591;28;20047;-72
2022/12/07 05:34:29;;;;;;;3.65;0.90;;;;;;;;;;5107855;28;20043;-73
2022/12/07 05:36:59;;;;;;;2.88;0.95;;;;;;;;;;5107572;28;20053;-73
2022/12/07 05:39:28;;;;;;;1.77;0.88;;;;;;;;;;5107161;28;20039;-72
2022/12/07 05:42:13;;;;;;;2.35;0.90;;;;;;;;;;5106369;28;20089;-72
2022/12/07 05:44:45;;;;;;;4.65;1.33;;;;;;;;;;5107602;28;20105;-72
2022/12/07 05:47:16;;;;;;;6.78;1.48;;;;;;;;;;5107598;28;20394;-72
2022/12/07 05:49:47;;;;;;;2.67;0.80;;;;;;;;;;5108092;28;20056;-72
2022/12/07 05:52:17;;;;;;;2.35;0.90;;;;;;;;;;5108317;28;20051;-72
2022/12/07 05:54:47;;;;;;;2.38;1.00;;;;;;;;;;5107257;28;20097;-72
2022/12/07 05:57:17;;;;;;;1.52;1.30;;;;;;;;;;5107262;28;20059;-72
2022/12/07 05:59:47;;;;;;;3.30;1.00;;;;;;;;;;5105975;28;20055;-72
2022/12/07 06:02:17;;;;;;;1.13;0.90;;;;;;;;;;5107173;28;20050;-72
2022/12/07 06:04:47;;;;;;;5.60;0.98;;;;;;;;;;5106981;28;20052;-71
2022/12/07 06:07:17;;;;;;;2.17;1.10;;;;;;;;;;5107225;28;20528;-72
2022/12/07 06:09:47;;;;;;;4.63;1.10;;;;;;;;;;5107357;28;20044;-73
2022/12/07 06:12:35;;;;;;;1.63;0.85;;;;;;;;;;5107240;28;20043;-72
2022/12/07 06:15:07;;;;;;;2.35;0.90;;;;;;;;;;5107086;28;20115;-73
2022/12/07 06:17:37;;;;;;;1.52;1.00;;;;;;;;;;5105611;28;20841;-72
2022/12/07 06:20:07;;;;;;;2.22;1.10;;;;;;;;;;5107504;28;20040;-72
2022/12/07 06:22:37;;;;;;;0.82;0.70;;;;;;;;;;5106979;28;20339;-73
2022/12/07 06:25:07;;;;;;;3.38;0.80;;;;;;;;;;5107153;28;20039;-72
2022/12/07 06:27:37;;;;;;;1.63;1.10;;;;;;;;;;5105111;28;20043;-72
2022/12/07 06:30:08;;;;;;;2.72;1.10;;;;;;;;;;5107369;28;20058;-73
2022/12/07 06:32:38;;;;;;;4.03;1.48;;;;;;;;;;5106982;28;20043;-73
2022/12/07 06:35:08;;;;;;;2.75;1.05;;;;;;;;;;5107190;28;20505;-72
2022/12/07 06:37:38;;;;;;;1.55;1.25;;;;;;;;;;5106865;28;20035;-73
2022/12/07 06:40:09;;;;;;;3.08;1.13;;;;;;;;;;5106693;28;20048;-72
2022/12/07 06:42:38;;;;;;;4.13;1.38;;;;;;;;;;5106983;28;20048;-72
2022/12/07 06:45:08;;;;;;;4.45;1.10;;;;;;;;;;5106976;28;20062;-73
2022/12/07 06:47:38;;;;;;;1.83;0.85;;;;;;;;;;5106153;28;20048;-72
2022/12/07 06:50:13;;;;;;;3.60;1.23;;;;;;;;;;5106865;28;20043;-73
2022/12/07 06:52:42;;;;;;;5.97;1.00;;;;;;;;;;5106619;28;20524;-72
2022/12/07 06:55:12;;;;;;;4.70;1.58;;;;;;;;;;5106501;28;20047;-72
2022/12/07 06:57:42;;;;;;;3.38;1.23;;;;;;;;;;5106380;28;20509;-72
2022/12/07 07:00:12;;;;;;;2.78;1.30;;;;;;;;;;5106674;28;20410;-72
2022/12/07 07:02:49;;;;;;;1.75;0.80;;;;;;;;;;5106171;28;20942;-73
2022/12/07 07:05:22;;;;;;;3.50;1.10;;;;;;;;;;5104754;28;20498;-72
2022/12/07 07:07:53;;;;;;;1.00;0.90;;;;;;;;;;5106259;28;20043;-72
2022/12/07 07:10:43;;;;;;;3.47;1.52;;;;;;;;;;5106865;28;20070;-72
2022/12/07 07:13:13;;;;;;;4.00;1.40;;;;;;;;;;5106204;28;20051;-72
2022/12/07 07:15:44;;;;;;;4.47;1.02;;;;;;;;;;5107091;28;20050;-73
2022/12/07 07:18:13;;;;;;;6.82;1.25;;;;;;;;;;5107066;28;20075;-73
2022/12/07 07:20:43;;;;;;;4.57;1.38;;;;;;;;;;5105238;28;20422;-72
2022/12/07 07:23:13;;;;;;;5.60;2.08;;;;;;;;;;5106131;28;20047;-72
2022/12/07 07:25:43;;;;;;;1.95;1.00;;;;;;;;;;5106156;28;20051;-72
2022/12/07 07:28:13;;;;;;;3.28;1.55;;;;;;;;;;5106768;28;20051;-72
2022/12/07 07:30:43;;;;;;;4.38;1.20;;;;;;;;;;5105848;28;20040;-73
2022/12/07 07:33:13;;;;;;;6.60;1.50;;;;;;;;;;5106228;28;20421;-73
2022/12/07 07:35:42;;;;;;;6.35;1.30;;;;;;;;;;5106624;28;20682;-73
2022/12/07 07:38:12;;;;;;;3.53;1.13;;;;;;;;;;5087592;28;20694;-73
2022/12/07 07:40:44;;;;;;;2.90;1.33;;;;;;;;;;5106311;28;20075;-73
2022/12/07 07:43:14;;;;;;;5.47;1.48;;;;;;;;;;5106008;28;20040;-72
2022/12/07 07:45:44;;;;;;;4.53;1.33;;;;;;;;;;5107104;28;20050;-73
2022/12/07 07:48:15;;;;;;;4.60;1.20;;;;;;;;;;5106230;28;20121;-73
2022/12/07 07:50:45;;;;;;;2.85;1.10;;;;;;;;;;5104262;28;20056;-72
2022/12/07 07:53:14;;;;;;;4.75;1.05;;;;;;;;;;5104985;28;20043;-73
2022/12/07 07:55:54;;;;;;;0.98;0.88;;;;;;;;;;5106278;28;20059;-73
2022/12/07 07:58:25;;;;;;;1.45;1.05;;;;;;;;;;5106989;28;20047;-73
2022/12/07 08:00:55;;;;;;;4.35;1.38;;;;;;;;;;5109738;28;20058;-73
2022/12/07 08:03:25;;;;;;;3.15;1.10;;;;;;;;;;5110280;28;20055;-73
2022/12/07 08:05:55;;;;;;;3.03;0.85;;;;;;;;;;5109654;28;20093;-73
2022/12/07 08:08:25;;;;;;;4.63;1.08;;;;;;;;;;5109662;28;20048;-75
2022/12/07 08:10:55;;;;;;;3.22;1.83;;;;;;;;;;5109554;28;20537;-73
2022/12/07 08:13:26;;;;;;;3.67;1.17;;;;;;;;;;5110420;28;20063;-73
2022/12/07 08:16:03;;;;;;;6.35;1.13;;;;;;;;;;5109517;28;20085;-72
2022/12/07 08:18:36;;;;;;;3.80;1.17;;;;;;;;;;5109116;28;20052;-73
2022/12/07 08:21:10;;;;;;;3.03;1.60;;;;;;;;;;5109652;28;20039;-73
2022/12/07 08:23:40;;;;;;;4.35;0.85;;;;;;;;;;5108914;28;20039;-73
2022/12/07 08:26:14;;;;;;;3.30;1.00;;;;;;;;;;5109696;28;20043;-73
2022/12/07 08:28:45;;;;;;;6.55;1.20;;;;;;;;;;5109368;28;20502;-73
2022/12/07 08:31:17;;;;;;;4.78;1.30;;;;;;;;;;5109041;28;20051;-73
2022/12/07 08:33:48;;;;;;;3.25;1.20;;;;;;;;;;5109389;28;20842;-73
2022/12/07 08:36:18;;;;;;;3.28;1.00;;;;;;;;;;5109252;28;20505;-73
2022/12/07 08:38:48;;;;;;;3.08;1.00;;;;;;;;;;5108887;28;20048;-73
2022/12/07 08:41:38;;;;;;;2.72;1.23;;;;;;;;;;5109897;28;20043;-73
2022/12/07 08:44:08;;;;;;;2.47;1.20;;;;;;;;;;5109059;28;20045;-73
2022/12/07 08:46:40;;;;;;;3.60;1.30;;;;;;;;;;5108808;28;20046;-73
2022/12/07 08:49:25;;;;;;;3.53;1.25;;;;;;;;;;5108633;28;20056;-73
2022/12/07 08:51:56;;;;;;;3.67;1.33;;;;;;;;;;5108848;28;20067;-73
2022/12/07 08:54:27;;;;;;;1.80;0.82;;;;;;;;;;5108901;28;20043;-73
2022/12/07 08:56:58;;;;;;;2.13;1.10;;;;;;;;;;5108917;28;20494;-73
2022/12/07 08:59:29;;;;;;;3.30;1.50;;;;;;;;;;5108456;28;20410;-76
2022/12/07 09:01:59;;;;;;;2.65;1.27;;;;;;;;;;5108752;28;20040;-75
2022/12/07 09:04:29;;;;;;;2.35;1.45;;;;;;;;;;5109215;28;20360;-73
2022/12/07 09:06:59;;;;;;;5.85;1.20;;;;;;;;;;5109173;28;20055;-74
2022/12/07 09:09:29;;;;;;;3.15;1.08;;;;;;;;;;5107179;28;20048;-73
2022/12/07 09:11:59;;;;;;;2.20;1.08;;;;;;;;;;5108168;28;20846;-73
2022/12/07 09:14:29;;;;;;;4.28;1.30;;;;;;;;;;5108544;28;20052;-73
2022/12/07 09:17:11;;;;;;;3.22;1.00;;;;;;;;;;5107998;28;20067;-74
2022/12/07 09:19:42;;;;;;;1.88;1.48;;;;;;;;;;5108007;28;20047;-73
2022/12/07 09:22:12;;;;;;;4.22;1.00;;;;;;;;;;5108150;28;20054;-73
2022/12/07 09:24:41;;;;;;;2.97;1.02;;;;;;;;;;5106290;28;20059;-73
2022/12/07 09:27:11;;;;;;;4.72;1.15;;;;;;;;;;5108309;28;20433;-75
2022/12/07 09:29:41;;;;;;;2.50;0.90;;;;;;;;;;5108054;28;20521;-73
2022/12/07 09:32:12;;;;;;;1.80;0.90;;;;;;;;;;5108459;28;20047;-73
2022/12/07 09:34:42;;;;;;;1.10;1.00;;;;;;;;;;5107807;28;20063;-73
2022/12/07 09:37:12;;;;;;;2.20;1.10;;;;;;;;;;5089646;28;20058;-74
2022/12/07 09:39:42;;;;;;;1.45;0.90;;;;;;;;;;5107949;28;20058;-74
2022/12/07 09:42:34;;;;;;;1.33;1.10;;;;;;;;;;5107705;28;20525;-74
2022/12/07 09:45:15;;;;;;;1.45;1.20;;;;;;;;;;5108007;28;20413;-74
2022/12/07 09:47:46;;;;;;;1.48;1.10;;;;;;;;;;5106192;28;20074;-74
2022/12/07 09:50:23;;;;;;;4.93;1.63;;;;;;;;;;5108084;28;20059;-73
2022/12/07 09:53:00;;;;;;;3.33;1.45;;;;;;;;;;5106350;28;20881;-75
2022/12/07 09:55:34;;;;;;;3.55;2.05;;;;;;;;;;5107788;28;20048;-74
2022/12/07 09:58:04;;;;;;;7.43;1.85;;;;;;;;;;5107406;28;20048;-74
2022/12/07 10:00:34;;;;;;;11.48;2.97;;;;;;;;;;5107664;28;20513;-74
2022/12/07 10:03:04;;;;;;;6.90;2.00;;;;;;;;;;5107302;28;20418;-73
2022/12/07 10:05:44;;;;;;;3.30;1.20;;;;;;;;;;5106582;28;20051;-73
2022/12/07 10:08:17;;;;;;;6.28;1.60;;;;;;;;;;5107208;28;20066;-74
2022/12/07 10:10:51;;;;;;;2.42;1.05;;;;;;;;;;5107165;28;20048;-74
2022/12/07 10:13:42;;;;;;;6.28;1.70;;;;;;;;;;5107315;28;20043;-74
2022/12/07 10:16:24;;;;;;;5.35;1.27;;;;;;;;;;5107141;28;20043;-74
2022/12/07 10:18:55;;;;;;;2.78;1.00;;;;;;;;;;5105933;28;20502;-73
2022/12/07 10:21:26;;;;;;;2.20;1.10;;;;;;;;;;5104490;28;20059;-73
2022/12/07 10:24:01;;;;;;;2.42;1.02;;;;;;;;;;5107014;28;20047;-73
2022/12/07 10:26:35;;;;;;;4.05;1.30;;;;;;;;;;5105444;28;20430;-73
2022/12/07 10:29:31;;;;;;;2.13;1.00;;;;;;;;;;5105236;28;20039;-75
2022/12/07 10:32:24;;;;;;;2.38;0.90;;;;;;;;;;5107079;28;20035;-75
2022/12/07 10:35:19;;;;;;;5.13;1.20;;;;;;;;;;5107673;28;20044;-74
2022/12/07 10:37:51;;;;;;;4.47;1.50;;;;;;;;;;5106955;28;20035;-74
2022/12/07 10:40:26;;;;;;;4.18;1.33;;;;;;;;;;5106898;28;20035;-73
2022/12/07 10:43:13;;;;;;;1.67;0.80;;;;;;;;;;5105392;28;20054;-73
2022/12/07 10:46:30;;;;;;;10.45;2.20;;;;;;;;;;5106659;28;20039;-74
2022/12/07 10:49:34;;;;;;;2.38;1.25;;;;;;;;;;5101907;28;20066;-74
2022/12/07 10:52:18;;;;;;;5.78;1.25;;;;;;;;;;5106483;28;20593;-74
2022/12/07 10:55:12;;;;;;;5.05;1.40;;;;;;;;;;5106503;28;20402;-74
2022/12/07 10:57:52;;;;;;;5.07;1.70;;;;;;;;;;5104853;28;20055;-74
2022/12/07 11:00:27;;;;;;;4.32;1.10;;;;;;;;;;5107278;28;20517;-74
2022/12/07 11:03:19;;;;;;;11.55;2.75;;;;;;;;;;5105495;28;20058;-74
2022/12/07 11:06:16;;;;;;;1.33;0.90;;;;;;;;;;5106880;28;20039;-74
2022/12/07 11:09:10;;;;;;;4.03;1.17;;;;;;;;;;5106715;28;20048;-75
2022/12/07 11:12:02;;;;;;;4.30;1.42;;;;;;;;;;5104965;28;20429;-74
2022/12/07 11:14:47;;;;;;;2.25;1.05;;;;;;;;;;5104077;28;20048;-74
2022/12/07 11:17:28;;;;;;;4.88;1.35;;;;;;;;;;5106408;28;20393;-73
2022/12/07 11:20:22;;;;;;;4.75;1.30;;;;;;;;;;5106334;28;20054;-74
2022/12/07 11:23:12;;;;;;;4.55;1.30;;;;;;;;;;5106470;28;20051;-74
2022/12/07 11:25:51;;;;;;;7.82;1.95;;;;;;;;;;5106522;28;20059;-74
2022/12/07 11:28:33;;;;;;;4.25;1.23;;;;;;;;;;5107094;28;20054;-74
2022/12/07 11:31:36;;;;;;;4.20;1.20;;;;;;;;;;5106320;28;20048;-74
2022/12/07 11:34:29;;;;;;;1.70;0.95;;;;;;;;;;5090309;28;20068;-74
2022/12/07 11:37:06;;;;;;;2.55;1.40;;;;;;;;;;5108833;28;20075;-75
2022/12/07 11:39:44;;;;;;;1.55;1.08;;;;;;;;;;5110053;28;20541;-75
2022/12/07 11:42:24;;;;;;;3.08;1.10;;;;;;;;;;5110125;28;20058;-74
2022/12/07 11:45:22;;;;;;;2.63;1.17;;;;;;;;;;5110122;28;20047;-74
2022/12/07 11:48:25;;;;;;;2.33;1.15;;;;;;;;;;5109848;28;20051;-74
2022/12/07 11:50:58;;;;;;;2.15;0.88;;;;;;;;;;5073435;28;20054;-74
2022/12/07 11:53:46;;;;;;;2.10;1.35;;;;;;;;;;5109761;28;20402;-74
2022/12/07 11:56:26;;;;;;;1.20;0.93;;;;;;;;;;5109902;28;20048;-74
2022/12/07 11:59:10;;;;;;;3.22;1.10;;;;;;;;;;5110617;28;20070;-75
2022/12/07 12:01:56;;;;;;;1.85;1.20;;;;;;;;;;5110186;28;20517;-74
2022/12/07 12:04:44;;;;;;;4.18;1.40;;;;;;;;;;5109874;28;20062;-83
2022/12/07 12:07:20;;;;;;;4.22;1.60;;;;;;;;;;5109764;28;20040;-75
2022/12/07 12:10:31;;;;;;;2.38;1.35;;;;;;;;;;5108261;28;20055;-75
2022/12/07 12:13:19;;;;;;;4.03;2.00;;;;;;;;;;5108161;28;20044;-74
2022/12/07 12:16:51;;;;;;;3.55;1.85;;;;;;;;;;5109463;28;20470;-76
2022/12/07 12:19:33;;;;;;;3.22;2.00;;;;;;;;;;5109520;28;20383;-74
2022/12/07 12:22:14;;;;;;;2.08;1.58;;;;;;;;;;5109101;28;20059;-74
2022/12/07 12:24:51;;;;;;;1.95;1.50;;;;;;;;;;5109318;28;20048;-78
2022/12/07 12:27:31;;;;;;;3.30;1.52;;;;;;;;;;5109064;28;20051;-74
2022/12/07 12:30:07;;;;;;;1.98;1.30;;;;;;;;;;5109032;28;20047;-74
2022/12/07 12:32:43;;;;;;;5.78;1.40;;;;;;;;;;5108894;28;20048;-75
2022/12/07 12:35:31;;;;;;;3.33;1.27;;;;;;;;;;5109350;28;20502;-74
2022/12/07 12:38:35;;;;;;;1.88;0.90;;;;;;;;;;5108575;28;20060;-74
2022/12/07 12:41:06;;;;;;;3.25;1.30;;;;;;;;;;5109071;28;20523;-75
2022/12/07 12:43:49;;;;;;;3.15;2.33;;;;;;;;;;5108207;28;20048;-74
2022/12/07 12:46:34;;;;;;;1.38;1.10;;;;;;;;;;5108335;28;20043;-75
2022/12/07 12:49:42;;;;;;;1.63;1.10;;;;;;;;;;5108926;28;20048;-79
2022/12/07 12:52:30;;;;;;;1.15;1.08;;;;;;;;;;5108124;28;20048;-75
2022/12/07 12:55:10;;;;;;;1.42;1.00;;;;;;;;;;5107345;28;20494;-74
2022/12/07 12:57:40;;;;;;;4.25;1.35;;;;;;;;;;5108534;28;20048;-74
2022/12/07 13:00:23;;;;;;;2.25;1.27;;;;;;;;;;5108847;28;20047;-75
2022/12/07 13:02:59;;;;;;;2.22;1.38;;;;;;;;;;5108678;28;20054;-75
2022/12/07 13:05:31;;;;;;;6.97;1.40;;;;;;;;;;5107295;28;20433;-74
2022/12/07 13:08:05;;;;;;;1.70;1.50;;;;;;;;;;5108019;28;20413;-74
2022/12/07 13:10:39;;;;;;;4.43;2.83;;;;;;;;;;5108724;28;20395;-74
2022/12/07 13:13:17;;;;;;;4.28;1.40;;;;;;;;;;5108166;28;20050;-75
2022/12/07 13:15:55;;;;;;;2.20;1.27;;;;;;;;;;5123172;27;20044;-74
2022/12/07 13:18:28;;;;;;;2.78;1.30;;;;;;;;;;5108117;28;20043;-74
2022/12/07 13:21:08;;;;;;;2.40;1.05;;;;;;;;;;5108163;28;20043;-74
2022/12/07 13:23:48;;;;;;;2.35;1.20;;;;;;;;;;5106987;28;20043;-74
2022/12/07 13:26:29;;;;;;;3.70;1.65;;;;;;;;;;5108689;28;20055;-75
2022/12/07 13:29:16;;;;;;;5.03;2.47;;;;;;;;;;5106934;28;20395;-76
2022/12/07 13:31:51;;;;;;;4.28;1.58;;;;;;;;;;5107892;28;20059;-74
2022/12/07 13:34:27;;;;;;;5.20;1.70;;;;;;;;;;5107801;28;20062;-74
2022/12/07 13:37:00;;;;;;;1.98;1.38;;;;;;;;;;5107888;28;20517;-75
2022/12/07 13:39:33;;;;;;;2.72;2.42;;;;;;;;;;5107324;28;20059;-75
2022/12/07 13:42:19;;;;;;;2.50;0.98;;;;;;;;;;5108099;28;20062;-75
2022/12/07 13:44:49;;;;;;;2.15;1.38;;;;;;;;;;5107550;28;20040;-78
2022/12/07 13:47:43;;;;;;;2.20;1.20;;;;;;;;;;5107564;28;20490;-75
2022/12/07 13:50:31;;;;;;;1.20;1.10;;;;;;;;;;5107872;28;20047;-74
2022/12/07 13:53:11;;;;;;;1.30;1.00;;;;;;;;;;5107698;28;20040;-74
2022/12/07 13:55:46;;;;;;;2.28;0.98;;;;;;;;;;5106599;28;20047;-74
2022/12/07 13:58:22;;;;;;;1.83;1.35;;;;;;;;;;5108400;28;20042;-75
2022/12/07 14:00:53;;;;;;;6.05;2.47;;;;;;;;;;5107620;28;20043;-75
2022/12/07 14:03:29;;;;;;;3.13;2.28;;;;;;;;;;5107223;28;20055;-74
2022/12/07 14:06:17;;;;;;;2.25;1.50;;;;;;;;;;5107221;28;20376;-75
2022/12/07 14:08:47;;;;;;;1.77;1.10;;;;;;;;;;5107108;28;20040;-75
2022/12/07 14:11:23;;;;;;;2.85;1.17;;;;;;;;;;5107064;28;20055;-74
2022/12/07 14:13:59;;;;;;;1.45;1.13;;;;;;;;;;5107428;28;20039;-75
2022/12/07 14:16:38;;;;;;;1.50;0.82;;;;;;;;;;5107079;28;20047;-75
2022/12/07 14:19:46;;;;;;;2.00;0.90;;;;;;;;;;5106963;28;20039;-74
2022/12/07 14:22:26;;;;;;;2.72;1.20;;;;;;;;;;5107360;28;20510;-74
2022/12/07 14:25:23;;;;;;;1.90;0.90;;;;;;;;;;5107297;28;20044;-76
2022/12/07 14:28:02;;;;;;;1.80;0.90;;;;;;;;;;5104097;28;20063;-74
2022/12/07 14:30:34;;;;;;;2.28;0.85;;;;;;;;;;5106321;28;20059;-75
2022/12/07 14:33:09;;;;;;;1.55;0.82;;;;;;;;;;5087759;28;20059;-74
2022/12/07 14:35:40;;;;;;;2.55;1.08;;;;;;;;;;5106713;28;20047;-74
2022/12/07 14:38:10;;;;;;;2.15;0.90;;;;;;;;;;5106490;28;20548;-75
2022/12/07 14:40:40;;;;;;;1.65;0.90;;;;;;;;;;5106613;28;20043;-75
2022/12/07 14:43:14;;;;;;;3.00;1.15;;;;;;;;;;5107023;28;20429;-74
2022/12/07 14:45:44;;;;;;;1.67;0.90;;;;;;;;;;5106516;28;20044;-76
2022/12/07 14:48:15;;;;;;;1.48;0.70;;;;;;;;;;5105242;28;20067;-75
2022/12/07 14:51:07;;;;;;;1.23;0.80;;;;;;;;;;5106418;28;20056;-76
2022/12/07 14:53:58;;;;;;;2.47;0.90;;;;;;;;;;5106851;28;20490;-76
2022/12/07 14:56:27;;;;;;;1.20;0.80;;;;;;;;;;5107108;28;20039;-76
2022/12/07 14:58:58;;;;;;;1.80;0.82;;;;;;;;;;5106298;28;20050;-75
2022/12/07 15:01:27;;;;;;;1.85;0.80;;;;;;;;;;5106718;28;20050;-75
2022/12/07 15:03:57;;;;;;;1.33;0.70;;;;;;;;;;5106303;28;20051;-75
2022/12/07 15:06:27;;;;;;;1.77;1.00;;;;;;;;;;5104256;28;20055;-75
2022/12/07 15:08:57;;;;;;;2.13;1.00;;;;;;;;;;5110721;28;20113;-75
2022/12/07 15:11:27;;;;;;;2.05;0.80;;;;;;;;;;5110740;28;20047;-75
2022/12/07 15:14:09;;;;;;;2.47;0.75;;;;;;;;;;5110398;28;20047;-75
2022/12/07 15:16:41;;;;;;;3.90;0.80;;;;;;;;;;5109162;28;20518;-75
2022/12/07 15:19:31;;;;;;;2.55;0.85;;;;;;;;;;5110786;28;20067;-76
2022/12/07 15:22:01;;;;;;;0.63;0.60;;;;;;;;;;5111085;28;20118;-75
2022/12/07 15:24:31;;;;;;;1.13;0.80;;;;;;;;;;5109392;28;20043;-75
2022/12/07 15:27:01;;;;;;;2.40;1.55;;;;;;;;;;5109886;28;20801;-78
2022/12/07 15:29:31;;;;;;;0.82;0.65;;;;;;;;;;5109254;28;20054;-76
2022/12/07 15:32:01;;;;;;;3.15;0.80;;;;;;;;;;5110750;28;20053;-75
2022/12/07 15:34:31;;;;;;;4.88;0.90;;;;;;;;;;5108806;28;20051;-75
2022/12/07 15:37:08;;;;;;;1.40;1.00;;;;;;;;;;5110239;28;20047;-75
2022/12/07 15:39:38;;;;;;;2.28;0.88;;;;;;;;;;5111217;28;20052;-76